createdAt,value
2023-05-10T00:00:18.620Z,23.77
2023-05-10T00:01:18.463Z,23.78
2023-05-10T00:02:18.507Z,23.77
2023-05-10T00:03:18.598Z,23.76
2023-05-10T00:04:18.634Z,23.76
2023-05-10T00:05:18.550Z,23.76
2023-05-10T00:06:18.553Z,23.76
2023-05-10T00:07:18.578Z,23.76
2023-05-10T00:08:18.613Z,23.75
2023-05-10T00:09:18.615Z,23.75
2023-05-10T00:10:18.793Z,23.75
2023-05-10T00:11:19.608Z,23.74
2023-05-10T00:12:18.724Z,23.75
2023-05-10T00:13:18.801Z,23.75
2023-05-10T00:14:18.925Z,23.75
2023-05-10T00:15:18.779Z,23.75
2023-05-10T00:16:18.808Z,23.74
2023-05-10T00:17:18.813Z,23.74
2023-05-10T00:18:18.836Z,23.74
2023-05-10T00:19:18.861Z,23.73
2023-05-10T00:20:19.252Z,23.72
2023-05-10T00:21:18.902Z,23.73
2023-05-10T00:22:18.917Z,23.72
2023-05-10T00:23:19.031Z,23.72
2023-05-10T00:24:18.954Z,23.72
2023-05-10T00:25:18.967Z,23.72
2023-05-10T00:26:19.002Z,23.72
2023-05-10T00:27:19.036Z,23.72
2023-05-10T00:28:19.021Z,23.72
2023-05-10T00:29:19.030Z,23.71
2023-05-10T00:30:19.293Z,23.71
2023-05-10T00:31:19.071Z,23.71
2023-05-10T00:32:19.240Z,23.70
2023-05-10T00:33:19.100Z,23.71
2023-05-10T00:34:19.146Z,23.70
2023-05-10T00:35:19.140Z,23.69
2023-05-10T00:36:19.135Z,23.70
2023-05-10T00:37:19.171Z,23.70
2023-05-10T00:38:19.179Z,23.69
2023-05-10T00:39:19.216Z,23.69
2023-05-10T00:40:19.390Z,23.68
2023-05-10T00:41:19.245Z,23.68
2023-05-10T00:42:19.263Z,23.69
2023-05-10T00:43:19.308Z,23.68
2023-05-10T00:44:19.319Z,23.68
2023-05-10T00:45:19.342Z,23.68
2023-05-10T00:46:19.408Z,23.68
2023-05-10T00:47:19.367Z,23.67
2023-05-10T00:48:19.396Z,23.67
2023-05-10T00:49:19.418Z,23.67
2023-05-10T00:50:19.447Z,23.67
2023-05-10T00:51:19.456Z,23.66
2023-05-10T00:52:19.491Z,23.67
2023-05-10T00:53:19.504Z,23.66
2023-05-10T00:54:19.531Z,23.66
2023-05-10T00:55:19.541Z,23.66
2023-05-10T00:56:19.568Z,23.65
2023-05-10T00:57:19.589Z,23.66
2023-05-10T00:58:19.622Z,23.65
2023-05-10T00:59:19.626Z,23.65
2023-05-10T01:00:19.653Z,23.65
2023-05-10T01:01:19.680Z,23.65
2023-05-10T01:02:19.697Z,23.65
2023-05-10T01:03:19.894Z,23.65
2023-05-10T01:04:19.730Z,23.64
2023-05-10T01:05:19.812Z,23.64
2023-05-10T01:06:19.769Z,23.64
2023-05-10T01:07:19.794Z,23.63
2023-05-10T01:08:19.845Z,23.63
2023-05-10T01:09:19.842Z,23.63
2023-05-10T01:10:19.881Z,23.63
2023-05-10T01:11:19.894Z,23.63
2023-05-10T01:12:19.994Z,23.63
2023-05-10T01:13:20.022Z,23.62
2023-05-10T01:14:19.976Z,23.63
2023-05-10T01:15:20.007Z,23.62
2023-05-10T01:16:20.046Z,23.62
2023-05-10T01:17:20.127Z,23.63
2023-05-10T01:18:20.104Z,23.62
2023-05-10T01:19:20.117Z,23.62
2023-05-10T01:20:20.260Z,23.61
2023-05-10T01:21:20.160Z,23.62
2023-05-10T01:22:20.209Z,23.61
2023-05-10T01:23:20.218Z,23.61
2023-05-10T01:24:20.254Z,23.60
2023-05-10T01:25:20.260Z,23.61
2023-05-10T01:26:20.287Z,23.61
2023-05-10T01:27:20.319Z,23.61
2023-05-10T01:28:20.359Z,23.61
2023-05-10T01:29:20.391Z,23.61
2023-05-10T01:31:20.592Z,23.61
2023-05-10T01:32:20.476Z,23.60
2023-05-10T01:33:20.489Z,23.60
2023-05-10T01:34:20.512Z,23.60
2023-05-10T01:35:20.566Z,23.60
2023-05-10T01:36:20.573Z,23.60
2023-05-10T01:37:20.613Z,23.60
2023-05-10T01:38:20.634Z,23.59
2023-05-10T01:39:20.680Z,23.59
2023-05-10T01:40:20.724Z,23.59
2023-05-10T01:41:20.746Z,23.59
2023-05-10T01:42:20.769Z,23.59
2023-05-10T01:43:20.824Z,23.58
2023-05-10T01:44:20.838Z,23.58
2023-05-10T01:45:20.869Z,23.58
2023-05-10T01:46:20.905Z,23.58
2023-05-10T01:47:20.930Z,23.57
2023-05-10T01:48:20.994Z,23.58
2023-05-10T01:49:21.009Z,23.58
2023-05-10T01:50:21.036Z,23.58
2023-05-10T01:51:21.060Z,23.57
2023-05-10T01:52:21.073Z,23.58
2023-05-10T01:53:21.118Z,23.57
2023-05-10T01:54:21.151Z,23.58
2023-05-10T01:55:21.186Z,23.57
2023-05-10T01:56:21.214Z,23.57
2023-05-10T01:57:21.255Z,23.57
2023-05-10T01:58:21.283Z,23.57
2023-05-10T01:59:21.318Z,23.57
2023-05-10T02:00:21.350Z,23.56
2023-05-10T02:01:21.458Z,23.56
2023-05-10T02:02:21.397Z,23.56
2023-05-10T02:03:21.450Z,23.56
2023-05-10T02:04:21.466Z,23.56
2023-05-10T02:05:21.493Z,23.54
2023-05-10T02:06:21.581Z,23.55
2023-05-10T02:07:21.548Z,23.55
2023-05-10T02:08:21.578Z,23.54
2023-05-10T02:09:21.612Z,23.54
2023-05-10T02:10:21.653Z,23.53
2023-05-10T02:11:21.702Z,23.53
2023-05-10T02:12:21.802Z,23.53
2023-05-10T02:13:21.808Z,23.53
2023-05-10T02:14:21.789Z,23.53
2023-05-10T02:15:21.797Z,23.53
2023-05-10T02:16:21.857Z,23.53
2023-05-10T02:17:21.866Z,23.53
2023-05-10T02:18:21.904Z,23.53
2023-05-10T02:19:21.931Z,23.52
2023-05-10T02:20:21.958Z,23.53
2023-05-10T02:21:22.020Z,23.52
2023-05-10T02:22:22.010Z,23.52
2023-05-10T02:23:22.054Z,23.51
2023-05-10T02:24:22.093Z,23.52
2023-05-10T02:25:22.118Z,23.51
2023-05-10T02:26:22.133Z,23.52
2023-05-10T02:27:22.160Z,23.52
2023-05-10T02:28:22.229Z,23.51
2023-05-10T02:29:22.246Z,23.51
2023-05-10T02:30:22.394Z,23.51
2023-05-10T02:31:22.344Z,23.50
2023-05-10T02:32:22.348Z,23.50
2023-05-10T02:33:22.371Z,23.50
2023-05-10T02:34:22.406Z,23.50
2023-05-10T02:35:22.447Z,23.50
2023-05-10T02:36:22.506Z,23.49
2023-05-10T02:37:22.498Z,23.49
2023-05-10T02:38:22.546Z,23.50
2023-05-10T02:39:22.588Z,23.49
2023-05-10T02:40:22.679Z,23.49
2023-05-10T02:41:22.658Z,23.49
2023-05-10T02:42:22.689Z,23.48
2023-05-10T02:43:22.725Z,23.49
2023-05-10T02:44:22.764Z,23.49
2023-05-10T02:45:22.779Z,23.48
2023-05-10T02:46:22.859Z,23.48
2023-05-10T02:47:22.838Z,23.48
2023-05-10T02:48:22.879Z,23.48
2023-05-10T02:49:22.926Z,23.48
2023-05-10T02:50:22.947Z,23.48
2023-05-10T02:51:23.003Z,23.47
2023-05-10T02:52:23.024Z,23.47
2023-05-10T02:53:23.075Z,23.47
2023-05-10T02:54:23.108Z,23.47
2023-05-10T02:55:23.148Z,23.47
2023-05-10T02:56:23.186Z,23.46
2023-05-10T02:57:23.244Z,23.47
2023-05-10T02:58:23.261Z,23.46
2023-05-10T02:59:23.309Z,23.46
2023-05-10T03:00:23.329Z,23.46
2023-05-10T03:01:23.395Z,23.46
2023-05-10T03:02:23.416Z,23.46
2023-05-10T03:03:23.457Z,23.46
2023-05-10T03:04:23.529Z,23.46
2023-05-10T03:05:23.513Z,23.45
2023-05-10T03:06:23.533Z,23.45
2023-05-10T03:07:23.587Z,23.45
2023-05-10T03:08:23.599Z,23.45
2023-05-10T03:09:23.658Z,23.44
2023-05-10T03:10:23.733Z,23.44
2023-05-10T03:11:23.694Z,23.44
2023-05-10T03:12:23.719Z,23.44
2023-05-10T03:13:23.877Z,23.45
2023-05-10T03:14:23.814Z,23.44
2023-05-10T03:15:23.845Z,23.44
2023-05-10T03:16:23.940Z,23.44
2023-05-10T03:17:23.952Z,23.44
2023-05-10T03:18:23.983Z,23.44
2023-05-10T03:19:24.011Z,23.44
2023-05-10T03:20:24.043Z,23.43
2023-05-10T03:21:24.084Z,23.43
2023-05-10T03:22:24.183Z,23.43
2023-05-10T03:23:24.161Z,23.42
2023-05-10T03:24:24.227Z,23.43
2023-05-10T03:25:24.282Z,23.43
2023-05-10T03:26:24.299Z,23.43
2023-05-10T03:27:24.335Z,23.43
2023-05-10T03:28:24.380Z,23.42
2023-05-10T03:29:24.434Z,23.42
2023-05-10T03:30:27.402Z,23.42
2023-05-10T03:31:24.527Z,23.42
2023-05-10T03:32:24.508Z,23.42
2023-05-10T03:33:24.513Z,23.42
2023-05-10T03:34:24.531Z,23.42
2023-05-10T03:35:24.538Z,23.41
2023-05-10T03:36:24.551Z,23.41
2023-05-10T03:37:24.560Z,23.41
2023-05-10T03:38:24.578Z,23.41
2023-05-10T03:39:24.594Z,23.40
2023-05-10T03:40:24.602Z,23.41
2023-05-10T03:41:24.643Z,23.41
2023-05-10T03:42:24.638Z,23.40
2023-05-10T03:43:24.644Z,23.40
2023-05-10T03:44:24.638Z,23.40
2023-05-10T03:45:24.643Z,23.40
2023-05-10T03:46:24.821Z,23.40
2023-05-10T03:47:24.676Z,23.40
2023-05-10T03:48:24.681Z,23.40
2023-05-10T03:49:24.677Z,23.39
2023-05-10T03:50:24.679Z,23.39
2023-05-10T03:51:24.690Z,23.39
2023-05-10T03:52:24.751Z,23.39
2023-05-10T03:53:24.718Z,23.39
2023-05-10T03:54:24.723Z,23.38
2023-05-10T03:55:24.726Z,23.38
2023-05-10T03:56:24.729Z,23.38
2023-05-10T03:57:24.740Z,23.38
2023-05-10T03:58:24.744Z,23.37
2023-05-10T03:59:24.782Z,23.37
2023-05-10T04:00:24.767Z,23.38
2023-05-10T04:01:24.800Z,23.38
2023-05-10T04:02:24.922Z,23.37
2023-05-10T04:03:24.849Z,23.37
2023-05-10T04:04:24.808Z,23.37
2023-05-10T04:05:24.822Z,23.37
2023-05-10T04:06:24.867Z,23.36
2023-05-10T04:07:24.844Z,23.36
2023-05-10T04:08:24.848Z,23.38
2023-05-10T04:09:24.892Z,23.36
2023-05-10T04:10:24.873Z,23.36
2023-05-10T04:11:24.885Z,23.36
2023-05-10T04:12:24.890Z,23.36
2023-05-10T04:13:25.052Z,23.36
2023-05-10T04:14:24.914Z,23.35
2023-05-10T04:15:24.922Z,23.36
2023-05-10T04:16:24.974Z,23.35
2023-05-10T04:17:25.003Z,23.35
2023-05-10T04:18:24.975Z,23.35
2023-05-10T04:19:24.990Z,23.35
2023-05-10T04:20:24.999Z,23.35
2023-05-10T04:21:25.015Z,23.36
2023-05-10T04:22:25.029Z,23.35
2023-05-10T04:23:25.045Z,23.35
2023-05-10T04:24:25.079Z,23.35
2023-05-10T04:25:25.073Z,23.34
2023-05-10T04:26:25.096Z,23.35
2023-05-10T04:27:25.081Z,23.34
2023-05-10T04:28:25.107Z,23.33
2023-05-10T04:29:25.160Z,23.33
2023-05-10T04:30:25.116Z,23.34
2023-05-10T04:31:25.252Z,23.34
2023-05-10T04:32:25.153Z,23.34
2023-05-10T04:33:25.146Z,23.33
2023-05-10T04:34:25.159Z,23.33
2023-05-10T04:35:25.174Z,23.33
2023-05-10T04:36:25.269Z,23.33
2023-05-10T04:37:25.182Z,23.33
2023-05-10T04:38:25.193Z,23.32
2023-05-10T04:39:25.199Z,23.33
2023-05-10T04:40:25.217Z,23.33
2023-05-10T04:41:25.233Z,23.33
2023-05-10T04:42:25.238Z,23.32
2023-05-10T04:43:25.243Z,23.32
2023-05-10T04:44:25.278Z,23.32
2023-05-10T04:45:25.316Z,23.33
2023-05-10T04:46:25.483Z,23.32
2023-05-10T04:47:25.378Z,23.31
2023-05-10T04:48:25.388Z,23.31
2023-05-10T04:49:25.396Z,23.32
2023-05-10T04:50:25.418Z,23.32
2023-05-10T04:51:25.419Z,23.32
2023-05-10T04:52:25.446Z,23.31
2023-05-10T04:53:25.433Z,23.31
2023-05-10T04:54:25.444Z,23.31
2023-05-10T04:55:25.454Z,23.32
2023-05-10T04:56:25.472Z,23.30
2023-05-10T04:57:25.474Z,23.31
2023-05-10T04:58:25.510Z,23.30
2023-05-10T04:59:25.499Z,23.30
2023-05-10T05:00:25.503Z,23.30
2023-05-10T05:01:25.565Z,23.30
2023-05-10T05:02:25.595Z,23.30
2023-05-10T05:03:25.558Z,23.30
2023-05-10T05:04:25.540Z,23.30
2023-05-10T05:05:25.550Z,23.30
2023-05-10T05:06:25.555Z,23.30
2023-05-10T05:07:25.563Z,23.30
2023-05-10T05:08:25.591Z,23.31
2023-05-10T05:09:25.590Z,23.30
2023-05-10T05:10:25.594Z,23.30
2023-05-10T05:11:25.609Z,23.29
2023-05-10T05:12:25.694Z,23.30
2023-05-10T05:13:25.804Z,23.30
2023-05-10T05:14:25.780Z,23.30
2023-05-10T05:15:25.827Z,23.29
2023-05-10T05:16:25.977Z,23.30
2023-05-10T05:17:25.951Z,23.29
2023-05-10T05:18:25.981Z,23.29
2023-05-10T05:19:25.997Z,23.28
2023-05-10T05:20:25.988Z,23.29
2023-05-10T05:21:26.008Z,23.29
2023-05-10T05:22:26.007Z,23.29
2023-05-10T05:23:26.007Z,23.28
2023-05-10T05:24:26.035Z,23.28
2023-05-10T05:25:26.039Z,23.28
2023-05-10T05:26:26.115Z,23.28
2023-05-10T05:27:26.047Z,23.28
2023-05-10T05:28:26.197Z,23.28
2023-05-10T05:29:26.087Z,23.28
2023-05-10T05:30:26.092Z,23.29
2023-05-10T05:31:26.169Z,23.29
2023-05-10T05:32:26.278Z,23.29
2023-05-10T05:33:26.112Z,23.30
2023-05-10T05:34:26.129Z,23.30
2023-05-10T05:35:26.117Z,23.30
2023-05-10T05:36:26.197Z,23.31
2023-05-10T05:37:26.147Z,23.32
2023-05-10T05:38:26.199Z,23.33
2023-05-10T05:39:26.273Z,23.34
2023-05-10T05:40:26.320Z,23.35
2023-05-10T05:41:26.348Z,23.37
2023-05-10T05:42:26.396Z,23.38
2023-05-10T05:43:26.447Z,23.37
2023-05-10T05:44:26.512Z,23.39
2023-05-10T05:45:26.536Z,23.40
2023-05-10T05:46:26.648Z,23.43
2023-05-10T05:47:26.840Z,23.45
2023-05-10T05:48:26.725Z,23.48
2023-05-10T05:49:26.768Z,23.50
2023-05-10T05:50:26.736Z,23.53
2023-05-10T05:51:26.831Z,23.54
2023-05-10T05:52:26.866Z,23.57
2023-05-10T05:53:26.997Z,23.59
2023-05-10T05:54:27.050Z,23.63
2023-05-10T05:55:26.884Z,23.66
2023-05-10T05:56:26.926Z,23.69
2023-05-10T05:57:26.913Z,23.70
2023-05-10T05:58:26.971Z,23.71
2023-05-10T05:59:27.049Z,23.74
2023-05-10T06:00:26.925Z,23.78
2023-05-10T06:01:26.853Z,23.80
2023-05-10T06:02:26.948Z,23.84
2023-05-10T06:03:27.017Z,23.86
2023-05-10T06:04:27.025Z,23.89
2023-05-10T06:05:26.901Z,23.91
2023-05-10T06:06:26.904Z,23.93
2023-05-10T06:07:26.900Z,23.93
2023-05-10T06:08:26.909Z,23.95
2023-05-10T06:09:26.896Z,23.96
2023-05-10T06:10:26.936Z,23.96
2023-05-10T06:11:26.906Z,23.98
2023-05-10T06:12:26.932Z,24.00
2023-05-10T06:13:27.083Z,24.00
2023-05-10T06:14:26.974Z,24.02
2023-05-10T06:15:26.982Z,24.04
2023-05-10T06:16:27.087Z,24.06
2023-05-10T06:17:27.142Z,24.07
2023-05-10T06:18:27.231Z,24.07
2023-05-10T06:19:27.160Z,24.07
2023-05-10T06:20:27.495Z,24.06
2023-05-10T06:21:27.185Z,24.06
2023-05-10T06:22:27.228Z,24.06
2023-05-10T06:23:27.190Z,24.06
2023-05-10T06:24:27.211Z,24.06
2023-05-10T06:25:27.228Z,24.07
2023-05-10T06:26:27.239Z,24.08
2023-05-10T06:27:27.316Z,24.10
2023-05-10T06:28:27.505Z,24.11
2023-05-10T06:29:27.553Z,24.12
2023-05-10T06:30:27.644Z,24.13
2023-05-10T06:31:27.677Z,24.16
2023-05-10T06:32:27.669Z,24.18
2023-05-10T06:33:27.732Z,24.18
2023-05-10T06:34:27.801Z,24.18
2023-05-10T06:35:27.922Z,24.19
2023-05-10T06:36:28.128Z,24.20
2023-05-10T06:37:28.540Z,24.20
2023-05-10T06:38:28.215Z,24.21
2023-05-10T06:39:28.161Z,24.22
2023-05-10T06:40:28.309Z,24.23
2023-05-10T06:41:28.333Z,24.25
2023-05-10T06:42:28.459Z,24.25
2023-05-10T06:43:28.326Z,24.24
2023-05-10T06:44:29.019Z,24.22
2023-05-10T06:45:28.466Z,24.24
2023-05-10T06:46:28.531Z,24.27
2023-05-10T06:47:28.778Z,24.29
2023-05-10T06:48:28.638Z,24.32
2023-05-10T06:49:28.693Z,24.34
2023-05-10T06:50:28.749Z,24.31
2023-05-10T06:51:28.783Z,24.31
2023-05-10T06:52:28.841Z,24.30
2023-05-10T06:53:28.924Z,24.30
2023-05-10T06:54:29.026Z,24.30
2023-05-10T06:55:29.040Z,24.31
2023-05-10T06:56:29.106Z,24.34
2023-05-10T06:57:32.043Z,24.36
2023-05-10T06:58:29.170Z,24.36
2023-05-10T06:59:29.172Z,24.33
2023-05-10T07:00:29.157Z,24.32
2023-05-10T07:01:29.274Z,24.31
2023-05-10T07:02:29.411Z,24.29
2023-05-10T07:03:29.136Z,24.30
2023-05-10T07:04:29.227Z,24.30
2023-05-10T07:05:29.315Z,24.28
2023-05-10T07:06:33.338Z,24.28
2023-05-10T07:07:29.256Z,24.28
2023-05-10T07:08:29.155Z,24.26
2023-05-10T07:09:29.174Z,24.26
2023-05-10T07:10:29.223Z,24.25
2023-05-10T07:11:29.155Z,24.24
2023-05-10T07:12:29.398Z,24.23
2023-05-10T07:13:29.200Z,24.21
2023-05-10T07:14:29.143Z,24.23
2023-05-10T07:15:29.159Z,24.22
2023-05-10T07:16:29.194Z,24.20
2023-05-10T07:17:29.308Z,24.18
2023-05-10T07:18:29.224Z,24.18
2023-05-10T07:19:29.279Z,24.18
2023-05-10T07:20:29.297Z,24.16
2023-05-10T07:21:29.387Z,24.13
2023-05-10T07:22:29.379Z,24.14
2023-05-10T07:23:29.422Z,24.14
2023-05-10T07:24:29.478Z,24.15
2023-05-10T07:25:29.547Z,24.15
2023-05-10T07:26:29.642Z,24.14
2023-05-10T07:27:29.685Z,24.14
2023-05-10T07:28:29.775Z,24.14
2023-05-10T07:29:29.830Z,24.11
2023-05-10T07:30:29.932Z,24.11
2023-05-10T07:31:29.973Z,24.11
2023-05-10T07:32:30.026Z,24.10
2023-05-10T07:33:29.928Z,24.09
2023-05-10T07:34:29.929Z,24.09
2023-05-10T07:35:29.927Z,24.08
2023-05-10T07:36:29.958Z,24.10
2023-05-10T07:37:29.936Z,24.10
2023-05-10T07:38:29.940Z,24.12
2023-05-10T07:39:29.940Z,24.15
2023-05-10T07:40:30.017Z,24.19
2023-05-10T07:41:30.058Z,24.25
2023-05-10T07:42:30.021Z,24.30
2023-05-10T07:43:30.021Z,24.34
2023-05-10T07:44:30.058Z,24.39
2023-05-10T07:45:30.107Z,24.43
2023-05-10T07:46:30.063Z,24.46
2023-05-10T07:47:30.099Z,24.49
2023-05-10T07:48:30.018Z,24.52
2023-05-10T07:49:30.033Z,24.55
2023-05-10T07:50:30.030Z,24.57
2023-05-10T07:51:30.028Z,24.60
2023-05-10T07:52:30.047Z,24.61
2023-05-10T07:53:30.117Z,24.62
2023-05-10T07:54:30.031Z,24.64
2023-05-10T07:55:30.051Z,24.64
2023-05-10T07:56:30.035Z,24.65
2023-05-10T07:57:29.998Z,24.67
2023-05-10T07:58:30.036Z,24.66
2023-05-10T07:59:30.010Z,24.67
2023-05-10T08:00:30.058Z,24.67
2023-05-10T08:01:30.004Z,24.67
2023-05-10T08:02:30.106Z,24.68
2023-05-10T08:03:30.138Z,24.67
2023-05-10T08:04:30.204Z,24.68
2023-05-10T08:05:30.018Z,24.68
2023-05-10T08:06:30.060Z,24.69
2023-05-10T08:07:30.047Z,24.67
2023-05-10T08:08:30.019Z,24.69
2023-05-10T08:09:30.004Z,24.68
2023-05-10T08:10:30.010Z,24.69
2023-05-10T08:11:29.976Z,24.70
2023-05-10T08:12:29.963Z,24.71
2023-05-10T08:13:29.974Z,24.72
2023-05-10T08:14:29.956Z,24.71
2023-05-10T08:15:29.963Z,24.71
2023-05-10T08:16:30.118Z,24.73
2023-05-10T08:17:29.963Z,24.74
2023-05-10T08:18:29.962Z,24.74
2023-05-10T08:19:29.938Z,24.75
2023-05-10T08:20:29.945Z,24.75
2023-05-10T08:21:30.048Z,24.76
2023-05-10T08:22:29.908Z,24.78
2023-05-10T08:23:29.922Z,24.82
2023-05-10T08:24:29.920Z,24.86
2023-05-10T08:25:29.919Z,24.91
2023-05-10T08:26:29.915Z,24.93
2023-05-10T08:27:29.917Z,24.95
2023-05-10T08:28:29.885Z,24.96
2023-05-10T08:29:32.875Z,24.99
2023-05-10T08:30:30.928Z,25.02
2023-05-10T08:31:29.982Z,25.05
2023-05-10T08:32:29.898Z,25.04
2023-05-10T08:33:29.858Z,25.02
2023-05-10T08:34:29.862Z,24.98
2023-05-10T08:35:29.878Z,24.96
2023-05-10T08:36:29.897Z,24.93
2023-05-10T08:37:29.810Z,24.86
2023-05-10T08:38:29.824Z,24.80
2023-05-10T08:39:30.909Z,24.78
2023-05-10T08:40:29.803Z,24.76
2023-05-10T08:41:29.945Z,24.73
2023-05-10T08:42:29.768Z,24.71
2023-05-10T08:43:29.836Z,24.69
2023-05-10T08:44:29.809Z,24.66
2023-05-10T08:45:30.122Z,24.58
2023-05-10T08:46:29.828Z,24.55
2023-05-10T08:47:29.773Z,24.56
2023-05-10T08:48:29.752Z,24.57
2023-05-10T08:49:29.786Z,24.58
2023-05-10T08:50:29.790Z,24.57
2023-05-10T08:51:29.758Z,24.57
2023-05-10T08:52:29.750Z,24.53
2023-05-10T08:53:29.804Z,24.51
2023-05-10T08:54:29.738Z,24.49
2023-05-10T08:55:29.731Z,24.47
2023-05-10T08:56:29.741Z,24.45
2023-05-10T08:57:29.732Z,24.45
2023-05-10T08:58:29.738Z,24.43
2023-05-10T08:59:29.785Z,24.41
2023-05-10T09:00:29.839Z,24.39
2023-05-10T09:01:29.839Z,24.38
2023-05-10T09:02:29.791Z,24.36
2023-05-10T09:03:29.788Z,24.34
2023-05-10T09:04:29.869Z,24.33
2023-05-10T09:05:29.754Z,24.32
2023-05-10T09:06:29.705Z,24.31
2023-05-10T09:07:29.743Z,24.29
2023-05-10T09:08:29.681Z,24.27
2023-05-10T09:09:29.705Z,24.25
2023-05-10T09:10:29.730Z,24.24
2023-05-10T09:11:29.722Z,24.23
2023-05-10T09:12:29.792Z,24.22
2023-05-10T09:13:29.805Z,24.22
2023-05-10T09:14:29.813Z,24.21
2023-05-10T09:15:29.795Z,24.20
2023-05-10T09:16:29.846Z,24.20
2023-05-10T09:17:29.796Z,24.19
2023-05-10T09:18:29.784Z,24.19
2023-05-10T09:19:29.791Z,24.19
2023-05-10T09:20:30.493Z,24.18
2023-05-10T09:21:29.904Z,24.17
2023-05-10T09:22:29.880Z,24.17
2023-05-10T09:23:29.935Z,24.15
2023-05-10T09:24:29.981Z,24.15
2023-05-10T09:25:30.049Z,24.13
2023-05-10T09:26:30.121Z,24.14
2023-05-10T09:27:30.216Z,24.14
2023-05-10T09:28:30.262Z,24.13
2023-05-10T09:29:30.346Z,24.12
2023-05-10T09:30:30.389Z,24.12
2023-05-10T09:31:30.632Z,24.12
2023-05-10T09:32:30.616Z,24.13
2023-05-10T09:33:30.652Z,24.10
2023-05-10T09:34:30.646Z,24.11
2023-05-10T09:35:30.723Z,24.11
2023-05-10T09:36:30.787Z,24.13
2023-05-10T09:37:30.862Z,24.13
2023-05-10T09:38:30.961Z,24.13
2023-05-10T09:39:31.090Z,24.14
2023-05-10T09:40:31.129Z,24.16
2023-05-10T09:41:31.135Z,24.17
2023-05-10T09:42:31.292Z,24.20
2023-05-10T09:43:31.253Z,24.22
2023-05-10T09:44:31.311Z,24.23
2023-05-10T09:45:31.466Z,24.25
2023-05-10T09:46:31.692Z,24.27
2023-05-10T09:47:31.511Z,24.30
2023-05-10T09:48:31.559Z,24.31
2023-05-10T09:49:31.643Z,24.34
2023-05-10T09:50:31.674Z,24.35
2023-05-10T09:51:31.714Z,24.40
2023-05-10T09:52:31.752Z,24.44
2023-05-10T09:53:31.753Z,24.46
2023-05-10T09:54:31.820Z,24.47
2023-05-10T09:55:31.876Z,24.48
2023-05-10T09:56:31.884Z,24.50
2023-05-10T09:57:34.544Z,24.51
2023-05-10T09:58:31.917Z,24.52
2023-05-10T09:59:31.922Z,24.54
2023-05-10T10:00:31.922Z,24.55
2023-05-10T10:01:31.974Z,24.57
2023-05-10T10:02:31.957Z,24.59
2023-05-10T10:03:31.923Z,24.57
2023-05-10T10:04:32.013Z,24.57
2023-05-10T10:05:32.039Z,24.58
2023-05-10T10:06:31.895Z,24.60
2023-05-10T10:07:31.940Z,24.63
2023-05-10T10:08:31.905Z,24.63
2023-05-10T10:09:31.928Z,24.61
2023-05-10T10:10:31.910Z,24.61
2023-05-10T10:11:31.911Z,24.62
2023-05-10T10:12:31.963Z,24.63
2023-05-10T10:13:31.936Z,24.64
2023-05-10T10:14:31.918Z,24.64
2023-05-10T10:15:31.915Z,24.67
2023-05-10T10:16:32.114Z,24.68
2023-05-10T10:17:32.055Z,24.71
2023-05-10T10:18:31.939Z,24.71
2023-05-10T10:19:31.920Z,24.74
2023-05-10T10:20:31.928Z,24.75
2023-05-10T10:21:31.899Z,24.74
2023-05-10T10:22:31.892Z,24.76
2023-05-10T10:23:31.901Z,24.77
2023-05-10T10:24:31.908Z,24.81
2023-05-10T10:25:31.893Z,24.85
2023-05-10T10:26:31.912Z,24.87
2023-05-10T10:27:31.904Z,24.86
2023-05-10T10:28:31.910Z,24.87
2023-05-10T10:29:31.899Z,24.88
2023-05-10T10:30:31.910Z,24.88
2023-05-10T10:31:31.944Z,24.89
2023-05-10T10:32:31.920Z,24.89
2023-05-10T10:33:32.031Z,24.89
2023-05-10T10:34:31.861Z,24.88
2023-05-10T10:35:31.878Z,24.88
2023-05-10T10:36:31.894Z,24.87
2023-05-10T10:37:32.032Z,24.87
2023-05-10T10:38:31.891Z,24.86
2023-05-10T10:39:31.896Z,24.86
2023-05-10T10:40:34.395Z,24.87
2023-05-10T10:41:31.891Z,24.88
2023-05-10T10:42:31.856Z,24.87
2023-05-10T10:43:31.858Z,24.85
2023-05-10T10:44:31.888Z,24.76
2023-05-10T10:45:31.854Z,24.71
2023-05-10T10:46:31.915Z,24.70
2023-05-10T10:47:31.884Z,24.67
2023-05-10T10:48:31.866Z,24.64
2023-05-10T10:49:31.871Z,24.63
2023-05-10T10:50:31.844Z,24.61
2023-05-10T10:51:31.858Z,24.58
2023-05-10T10:52:31.891Z,24.54
2023-05-10T10:53:31.975Z,24.52
2023-05-10T10:54:31.898Z,24.52
2023-05-10T10:55:31.843Z,24.50
2023-05-10T10:56:31.848Z,24.47
2023-05-10T10:57:31.853Z,24.46
2023-05-10T10:58:31.839Z,24.45
2023-05-10T10:59:31.875Z,24.44
2023-05-10T11:00:32.273Z,24.41
2023-05-10T11:01:32.086Z,24.39
2023-05-10T11:02:32.037Z,24.38
2023-05-10T11:03:32.106Z,24.36
2023-05-10T11:04:32.165Z,24.35
2023-05-10T11:05:32.196Z,24.34
2023-05-10T11:06:32.280Z,24.34
2023-05-10T11:07:32.321Z,24.36
2023-05-10T11:08:32.423Z,24.36
2023-05-10T11:09:32.458Z,24.37
2023-05-10T11:10:32.499Z,24.37
2023-05-10T11:11:32.559Z,24.38
2023-05-10T11:12:32.637Z,24.37
2023-05-10T11:13:32.660Z,24.37
2023-05-10T11:14:32.732Z,24.37
2023-05-10T11:15:32.821Z,24.38
2023-05-10T11:16:32.867Z,24.38
2023-05-10T11:17:33.058Z,24.38
2023-05-10T11:18:33.023Z,24.38
2023-05-10T11:19:33.022Z,24.40
2023-05-10T11:20:33.077Z,24.41
2023-05-10T11:21:33.146Z,24.40
2023-05-10T11:22:33.192Z,24.39
2023-05-10T11:23:33.254Z,24.38
2023-05-10T11:24:33.297Z,24.37
2023-05-10T11:25:33.352Z,24.38
2023-05-10T11:26:33.501Z,24.37
2023-05-10T11:27:33.425Z,24.37
2023-05-10T11:28:33.404Z,24.36
2023-05-10T11:29:33.401Z,24.36
2023-05-10T11:30:33.497Z,24.36
2023-05-10T11:31:33.399Z,24.35
2023-05-10T11:32:33.399Z,24.35
2023-05-10T11:33:33.410Z,24.34
2023-05-10T11:34:33.394Z,24.34
2023-05-10T11:35:33.420Z,24.35
2023-05-10T11:36:33.464Z,24.34
2023-05-10T11:37:33.605Z,24.33
2023-05-10T11:38:33.419Z,24.33
2023-05-10T11:39:33.423Z,24.33
2023-05-10T11:40:33.454Z,24.33
2023-05-10T11:41:33.512Z,24.32
2023-05-10T11:42:33.444Z,24.32
2023-05-10T11:43:33.458Z,24.31
2023-05-10T11:44:33.489Z,24.31
2023-05-10T11:45:33.486Z,24.31
2023-05-10T11:46:33.551Z,24.31
2023-05-10T11:47:33.552Z,24.31
2023-05-10T11:48:33.504Z,24.30
2023-05-10T11:49:33.508Z,24.30
2023-05-10T11:50:33.523Z,24.29
2023-05-10T11:51:33.545Z,24.29
2023-05-10T11:52:33.587Z,24.29
2023-05-10T11:53:33.790Z,24.28
2023-05-10T11:54:33.726Z,24.27
2023-05-10T11:55:33.797Z,24.27
2023-05-10T11:56:33.863Z,24.27
2023-05-10T11:57:33.926Z,24.27
2023-05-10T11:58:33.964Z,24.27
2023-05-10T11:59:34.000Z,24.25
2023-05-10T12:00:33.996Z,24.25
2023-05-10T12:01:34.012Z,24.24
2023-05-10T12:02:34.037Z,24.25
2023-05-10T12:03:34.121Z,24.25
2023-05-10T12:04:34.020Z,24.24
2023-05-10T12:05:34.004Z,24.24
2023-05-10T12:06:34.035Z,24.23
2023-05-10T12:07:34.024Z,24.22
2023-05-10T12:08:34.089Z,24.22
2023-05-10T12:09:43.388Z,24.22
2023-05-10T12:10:35.163Z,24.21
2023-05-10T12:11:34.159Z,24.21
2023-05-10T12:12:34.117Z,24.21
2023-05-10T12:13:34.118Z,24.20
2023-05-10T12:14:34.100Z,24.20
2023-05-10T12:15:34.125Z,24.20
2023-05-10T12:16:34.200Z,24.21
2023-05-10T12:17:34.232Z,24.20
2023-05-10T12:18:34.152Z,24.20
2023-05-10T12:19:34.132Z,24.20
2023-05-10T12:20:34.132Z,24.20
2023-05-10T12:21:34.239Z,24.19
2023-05-10T12:22:34.289Z,24.19
2023-05-10T12:23:34.338Z,24.19
2023-05-10T12:24:34.411Z,24.18
2023-05-10T12:25:34.523Z,24.19
2023-05-10T12:26:34.568Z,24.19
2023-05-10T12:27:34.567Z,24.17
2023-05-10T12:28:34.628Z,24.18
2023-05-10T12:29:34.576Z,24.18
2023-05-10T12:30:34.587Z,24.18
2023-05-10T12:31:34.846Z,24.17
2023-05-10T12:32:34.626Z,24.17
2023-05-10T12:33:34.595Z,24.17
2023-05-10T12:34:34.655Z,24.17
2023-05-10T12:35:34.707Z,24.16
2023-05-10T12:36:34.785Z,24.16
2023-05-10T12:37:34.827Z,24.15
2023-05-10T12:38:34.900Z,24.15
2023-05-10T12:39:34.990Z,24.15
2023-05-10T12:40:35.087Z,24.15
2023-05-10T12:41:35.138Z,24.15
2023-05-10T12:42:35.197Z,24.14
2023-05-10T12:43:35.289Z,24.14
2023-05-10T12:44:35.338Z,24.13
2023-05-10T12:45:35.439Z,24.13
2023-05-10T12:46:35.425Z,24.12
2023-05-10T12:47:35.472Z,24.12
2023-05-10T12:48:35.442Z,24.11
2023-05-10T12:49:35.453Z,24.12
2023-05-10T12:50:35.433Z,24.12
2023-05-10T12:51:35.448Z,24.12
2023-05-10T12:52:35.448Z,24.11
2023-05-10T12:53:35.501Z,24.11